createdAt,value
2019-03-01T00:00:36.813Z,10.10
2019-03-01T00:03:07.833Z,10.10
2019-03-01T00:05:56.003Z,10.10
2019-03-01T00:08:44.907Z,10.00
2019-03-01T00:11:54.354Z,9.90
2019-03-01T00:14:47.658Z,9.80
2019-03-01T00:17:38.742Z,9.60
2019-03-01T00:20:43.932Z,9.40
2019-03-01T00:23:53.779Z,9.40
2019-03-01T00:26:54.663Z,9.30
2019-03-01T00:30:24.116Z,9.30
2019-03-01T00:33:46.376Z,9.20
2019-03-01T00:36:49.573Z,9.20
2019-03-01T00:39:41.919Z,9.20
2019-03-01T00:43:13.662Z,9.20
2019-03-01T00:45:43.972Z,9.10
2019-03-01T00:48:14.234Z,9.00
2019-03-01T00:50:43.739Z,8.90
2019-03-01T00:53:14.448Z,8.90
2019-03-01T00:55:44.350Z,8.90
2019-03-01T00:58:14.022Z,8.90
2019-03-01T01:00:47.142Z,8.90
2019-03-01T01:03:17.906Z,8.90
2019-03-01T01:05:47.696Z,8.80
2019-03-01T01:08:17.704Z,8.80
2019-03-01T01:11:12.251Z,8.80
2019-03-01T01:13:42.073Z,8.80
2019-03-01T01:16:12.383Z,8.80
2019-03-01T01:18:42.695Z,8.80
2019-03-01T01:21:12.342Z,8.80
2019-03-01T01:23:42.719Z,8.80
2019-03-01T01:26:12.308Z,8.80
2019-03-01T01:28:42.151Z,8.80
2019-03-01T01:31:14.977Z,8.80
2019-03-01T01:33:44.739Z,8.80
2019-03-01T01:36:14.598Z,8.70
2019-03-01T01:38:44.498Z,8.80
2019-03-01T01:41:14.712Z,8.80
2019-03-01T01:43:44.961Z,8.80
2019-03-01T01:46:15.458Z,8.80
2019-03-01T01:48:45.163Z,8.80
2019-03-01T01:51:15.064Z,8.80
2019-03-01T01:53:44.609Z,8.80
2019-03-01T01:56:14.421Z,8.80
2019-03-01T01:58:44.369Z,8.80
2019-03-01T02:01:14.066Z,8.80
2019-03-01T02:03:43.792Z,8.80
2019-03-01T02:06:13.913Z,8.80
2019-03-01T02:08:43.591Z,8.80
2019-03-01T02:11:13.599Z,8.80
2019-03-01T02:13:43.628Z,8.80
2019-03-01T02:16:16.334Z,8.80
2019-03-01T02:18:57.465Z,8.80
2019-03-01T02:21:49.136Z,8.80
2019-03-01T02:27:40.089Z,8.80
2019-03-01T02:30:13.738Z,8.80
2019-03-01T02:33:18.134Z,8.80
2019-03-01T02:36:19.524Z,8.80
2019-03-01T02:38:21.050Z,8.80
2019-03-01T02:41:14.415Z,8.80
2019-03-01T02:43:44.786Z,8.80
2019-03-01T02:46:15.280Z,8.80
2019-03-01T02:48:47.170Z,8.80
2019-03-01T02:51:18.134Z,8.80
2019-03-01T02:53:51.369Z,8.90
2019-03-01T02:57:04.747Z,8.90
2019-03-01T02:59:40.870Z,8.80
2019-03-01T03:02:11.415Z,8.80
2019-03-01T03:04:41.895Z,8.80
2019-03-01T03:07:40.389Z,8.80
2019-03-01T03:10:11.679Z,8.80
2019-03-01T03:12:43.038Z,8.80
2019-03-01T03:15:13.561Z,8.80
2019-03-01T03:17:43.842Z,8.80
2019-03-01T03:20:37.754Z,8.80
2019-03-01T03:26:14.721Z,8.80
2019-03-01T03:28:44.972Z,8.80
2019-03-01T03:31:15.374Z,8.80
2019-03-01T03:34:14.202Z,8.80
2019-03-01T03:36:49.167Z,8.80
2019-03-01T03:39:19.690Z,8.80
2019-03-01T03:41:50.858Z,8.80
2019-03-01T03:44:38.057Z,8.80
2019-03-01T03:47:12.225Z,8.80
2019-03-01T03:49:45.844Z,8.80
2019-03-01T03:52:16.432Z,8.80
2019-03-01T03:54:46.985Z,8.80
2019-03-01T03:57:17.205Z,8.80
2019-03-01T04:00:08.500Z,8.80
2019-03-01T04:02:41.313Z,8.80
2019-03-01T04:05:14.329Z,8.80
2019-03-01T04:07:44.724Z,8.80
2019-03-01T04:10:15.219Z,8.80
2019-03-01T04:13:26.235Z,8.80
2019-03-01T04:15:58.800Z,8.80
2019-03-01T04:18:33.083Z,8.80
2019-03-01T04:21:31.522Z,8.70
2019-03-01T04:24:42.217Z,8.70
2019-03-01T04:30:16.371Z,8.70
2019-03-01T04:32:46.926Z,8.70
2019-03-01T04:35:17.966Z,8.60
2019-03-01T04:40:40.838Z,8.70
2019-03-01T04:43:13.661Z,8.60
2019-03-01T04:45:44.708Z,8.60
2019-03-01T04:48:17.530Z,8.60
2019-03-01T04:50:47.709Z,8.60
2019-03-01T04:53:27.132Z,8.60
2019-03-01T04:56:17.307Z,8.60
2019-03-01T04:58:48.977Z,8.60
2019-03-01T05:01:19.407Z,8.60
2019-03-01T05:04:12.141Z,8.60
2019-03-01T05:06:46.048Z,8.60
2019-03-01T05:09:20.193Z,8.60
2019-03-01T05:11:52.264Z,8.60
2019-03-01T05:17:43.337Z,8.60
2019-03-01T05:20:41.829Z,8.60
2019-03-01T05:27:07.469Z,8.60
2019-03-01T05:29:42.634Z,8.60
2019-03-01T05:32:13.097Z,8.60
2019-03-01T05:34:46.794Z,8.60
2019-03-01T05:37:17.978Z,8.60
2019-03-01T05:39:49.604Z,8.60
2019-03-01T05:42:33.961Z,8.60
2019-03-01T05:45:35.811Z,8.60
2019-03-01T05:48:06.022Z,8.60
2019-03-01T05:51:20.388Z,8.60
2019-03-01T05:54:16.491Z,8.60
2019-03-01T05:56:47.045Z,8.60
2019-03-01T05:59:23.631Z,8.60
2019-03-01T06:16:15.677Z,8.60
2019-03-01T06:19:48.533Z,8.60
2019-03-01T06:23:22.008Z,8.50
2019-03-01T06:32:42.213Z,7.70
2019-03-01T06:36:00.026Z,7.60
2019-03-01T06:43:26.374Z,7.70
2019-03-01T06:46:55.512Z,7.80
2019-03-01T06:49:51.790Z,7.80
2019-03-01T06:52:21.793Z,7.90
2019-03-01T06:54:53.627Z,8.00
2019-03-01T06:57:23.118Z,8.00
2019-03-01T06:59:52.704Z,8.00
2019-03-01T07:02:27.480Z,7.90
2019-03-01T07:04:56.726Z,7.90
2019-03-01T07:07:28.199Z,7.90
2019-03-01T07:10:23.346Z,7.80
2019-03-01T07:13:24.789Z,7.90
2019-03-01T07:16:20.530Z,7.90
2019-03-01T07:19:20.678Z,7.90
2019-03-01T07:21:51.275Z,7.90
2019-03-01T07:24:21.112Z,7.90
2019-03-01T07:26:52.168Z,7.90
2019-03-01T07:29:23.758Z,7.90
2019-03-01T07:31:55.385Z,8.00
2019-03-01T07:34:29.448Z,8.00
2019-03-01T07:37:37.812Z,8.00
2019-03-01T07:40:22.932Z,8.00
2019-03-01T07:43:47.359Z,7.90
2019-03-01T07:46:53.205Z,7.80
2019-03-01T07:49:49.035Z,7.80
2019-03-01T07:52:23.076Z,7.90
2019-03-01T07:54:53.681Z,7.90
2019-03-01T07:57:26.325Z,7.80
2019-03-01T07:59:59.161Z,7.80
2019-03-01T08:02:54.383Z,7.90
2019-03-01T08:08:40.103Z,7.90
2019-03-01T08:11:20.237Z,7.90
2019-03-01T08:13:54.062Z,8.00
2019-03-01T08:16:56.942Z,8.00
2019-03-01T08:19:27.786Z,8.00
2019-03-01T08:21:56.945Z,8.00
2019-03-01T08:24:26.269Z,8.00
2019-03-01T08:26:57.008Z,8.00
2019-03-01T08:29:26.591Z,8.00
2019-03-01T08:31:56.712Z,8.00
2019-03-01T08:34:26.057Z,7.90
2019-03-01T08:36:57.032Z,7.90
2019-03-01T08:39:26.734Z,8.00
2019-03-01T08:42:21.820Z,8.00
2019-03-01T08:48:40.554Z,8.10
2019-03-01T08:51:22.624Z,8.20
2019-03-01T08:53:51.786Z,8.20
2019-03-01T08:56:39.908Z,8.20
2019-03-01T08:59:17.462Z,8.20
2019-03-01T09:01:47.093Z,8.20
2019-03-01T09:04:50.486Z,8.20
2019-03-01T09:07:13.195Z,8.20
2019-03-01T09:09:50.398Z,8.20
2019-03-01T09:12:42.845Z,8.20
2019-03-01T09:15:15.114Z,8.20
2019-03-01T09:17:45.123Z,8.30
2019-03-01T09:20:16.016Z,8.30
2019-03-01T09:22:56.185Z,8.20
2019-03-01T09:25:22.350Z,8.20
2019-03-01T09:28:07.854Z,8.30
2019-03-01T09:30:47.166Z,8.30
2019-03-01T09:33:34.053Z,8.30
2019-03-01T09:36:25.997Z,8.30
2019-03-01T09:39:43.633Z,8.30
2019-03-01T09:46:30.964Z,8.40
2019-03-01T09:49:01.780Z,8.50
2019-03-01T09:54:30.092Z,8.30
2019-03-01T09:57:02.673Z,8.40
2019-03-01T09:59:32.805Z,8.50
2019-03-01T10:02:03.277Z,8.50
2019-03-01T10:04:47.954Z,8.60
2019-03-01T10:10:30.621Z,8.50
2019-03-01T10:13:03.048Z,8.50
2019-03-01T10:15:33.282Z,8.50
2019-03-01T10:18:03.929Z,8.50
2019-03-01T10:20:33.697Z,8.40
2019-03-01T10:23:31.814Z,8.40
2019-03-01T10:26:02.500Z,8.40
2019-03-01T10:28:36.477Z,8.50
2019-03-01T10:31:06.161Z,8.50
2019-03-01T10:34:03.614Z,8.50
2019-03-01T10:37:24.802Z,8.50
2019-03-01T10:41:08.251Z,8.50
2019-03-01T10:43:39.282Z,8.40
2019-03-01T10:46:09.911Z,8.40
2019-03-01T10:48:39.775Z,8.40
2019-03-01T10:51:59.155Z,8.40
2019-03-01T10:54:29.070Z,8.50
2019-03-01T10:57:00.388Z,8.50
2019-03-01T10:59:40.520Z,8.50
2019-03-01T11:02:10.711Z,8.60
2019-03-01T11:05:03.814Z,8.60
2019-03-01T11:07:35.011Z,8.60
2019-03-01T11:10:05.510Z,8.60
2019-03-01T11:12:35.995Z,8.50
2019-03-01T11:15:06.402Z,8.50
2019-03-01T11:17:56.116Z,8.40
2019-03-01T11:20:27.642Z,8.30
2019-03-01T11:23:20.571Z,8.40
2019-03-01T11:26:38.327Z,8.40
2019-03-01T11:29:11.450Z,8.30
2019-03-01T11:31:42.956Z,8.30
2019-03-01T11:34:13.833Z,8.30
2019-03-01T11:36:56.542Z,8.30
2019-03-01T11:39:27.042Z,8.30
2019-03-01T11:41:58.445Z,8.30
2019-03-01T11:44:28.122Z,8.20
2019-03-01T11:47:20.440Z,8.20
2019-03-01T11:49:56.636Z,8.30
2019-03-01T11:52:26.670Z,8.30
2019-03-01T11:54:56.761Z,8.30
2019-03-01T11:58:23.477Z,8.30
2019-03-01T12:03:27.118Z,8.30
2019-03-01T12:05:57.091Z,8.30
2019-03-01T12:08:41.132Z,8.30
2019-03-01T12:11:11.757Z,8.40
2019-03-01T12:13:41.885Z,8.40
2019-03-01T12:16:17.241Z,8.40
2019-03-01T12:21:45.558Z,8.40
2019-03-01T12:24:15.410Z,8.40
2019-03-01T12:27:08.357Z,8.50
2019-03-01T12:29:40.043Z,8.50
2019-03-01T12:32:10.614Z,8.40
2019-03-01T12:34:40.851Z,8.40
2019-03-01T12:37:11.665Z,8.30
2019-03-01T12:39:41.333Z,8.30
2019-03-01T12:42:11.153Z,8.30
2019-03-01T12:45:05.703Z,8.30
2019-03-01T12:50:25.160Z,8.40
2019-03-01T12:53:03.335Z,8.40
2019-03-01T12:55:35.582Z,8.40
2019-03-01T12:58:19.032Z,8.40
2019-03-01T13:00:41.397Z,8.40
2019-03-01T13:03:30.434Z,8.40
2019-03-01T13:06:03.772Z,8.40
2019-03-01T13:08:32.773Z,8.50
2019-03-01T13:11:02.361Z,8.50
2019-03-01T13:13:34.713Z,8.60
2019-03-01T13:19:35.268Z,8.60
2019-03-01T13:22:27.943Z,8.60
2019-03-01T13:25:01.332Z,8.60
2019-03-01T13:27:30.873Z,8.60
2019-03-01T13:30:00.365Z,8.70
2019-03-01T13:32:32.854Z,8.80
2019-03-01T13:35:02.746Z,8.80
2019-03-01T13:37:32.376Z,8.80
2019-03-01T13:40:02.133Z,8.80
2019-03-01T13:42:31.992Z,8.90
2019-03-01T13:45:01.316Z,8.90
2019-03-01T13:47:31.225Z,8.90
2019-03-01T13:50:05.593Z,9.00
2019-03-01T13:52:59.911Z,9.00
2019-03-01T13:55:29.096Z,9.00
2019-03-01T13:58:01.428Z,9.00
2019-03-01T14:00:32.284Z,9.00
2019-03-01T14:06:02.234Z,9.00
2019-03-01T14:08:32.275Z,9.10
2019-03-01T14:13:56.722Z,9.10
2019-03-01T14:16:33.009Z,9.10
2019-03-01T14:19:05.818Z,9.20
2019-03-01T14:22:10.618Z,9.10
2019-03-01T14:29:59.340Z,9.20
2019-03-01T14:32:56.916Z,9.10
2019-03-01T14:35:29.670Z,9.10
2019-03-01T14:38:03.357Z,9.00
2019-03-01T14:40:32.796Z,9.10
2019-03-01T14:43:07.966Z,9.00
2019-03-01T14:45:56.629Z,9.00
2019-03-01T14:48:29.559Z,9.00
2019-03-01T14:53:41.699Z,8.90
2019-03-01T14:56:15.146Z,8.90
2019-03-01T14:59:12.311Z,8.90
2019-03-01T15:01:49.320Z,8.80
2019-03-01T15:04:40.978Z,8.80
2019-03-01T15:07:10.548Z,8.80
2019-03-01T15:09:39.707Z,8.80
2019-03-01T15:12:08.712Z,8.80
2019-03-01T15:14:37.735Z,8.80
2019-03-01T15:17:06.947Z,8.80
2019-03-01T15:19:36.764Z,8.80
2019-03-01T15:22:06.075Z,8.80
2019-03-01T15:24:36.276Z,8.80
2019-03-01T15:27:09.207Z,8.80
2019-03-01T15:29:38.479Z,8.90
2019-03-01T15:32:12.441Z,8.90
2019-03-01T15:34:41.705Z,8.90
2019-03-01T15:37:10.779Z,8.90
2019-03-01T15:39:40.629Z,8.90
2019-03-01T15:42:10.100Z,8.90
2019-03-01T15:44:39.202Z,8.90
2019-03-01T15:47:08.242Z,8.90
2019-03-01T15:49:37.578Z,8.80
2019-03-01T15:52:07.141Z,8.70
2019-03-01T15:54:36.773Z,8.70
2019-03-01T15:57:08.099Z,8.70
2019-03-01T15:59:37.228Z,8.60
2019-03-01T16:02:06.592Z,8.60
2019-03-01T16:04:35.752Z,8.60
2019-03-01T16:07:04.942Z,8.50
2019-03-01T16:09:34.407Z,8.50
2019-03-01T16:12:03.511Z,8.50
2019-03-01T16:14:34.497Z,8.50
2019-03-01T16:17:03.959Z,8.50
2019-03-01T16:19:33.089Z,8.50
2019-03-01T16:22:02.542Z,8.50
2019-03-01T16:24:31.695Z,8.50
2019-03-01T16:27:01.534Z,8.50
2019-03-01T16:29:30.614Z,8.50
2019-03-01T16:31:59.943Z,8.50
2019-03-01T16:34:29.358Z,8.50
2019-03-01T16:36:59.305Z,8.50
2019-03-01T16:39:28.879Z,8.40
2019-03-01T16:41:58.004Z,8.40
2019-03-01T16:44:27.467Z,8.50
2019-03-01T16:46:56.664Z,8.50
2019-03-01T16:49:27.219Z,8.40
2019-03-01T16:51:57.933Z,8.40
2019-03-01T16:54:27.031Z,8.50
2019-03-01T16:56:56.302Z,8.40
2019-03-01T16:59:25.651Z,8.50
2019-03-01T17:01:54.983Z,8.50
2019-03-01T17:04:27.429Z,8.40
2019-03-01T17:06:55.717Z,8.40
2019-03-01T17:09:24.856Z,8.50
2019-03-01T17:11:54.359Z,8.50
2019-03-01T17:14:23.446Z,8.50
2019-03-01T17:16:52.978Z,8.50
2019-03-01T17:19:24.094Z,8.50
2019-03-01T17:21:52.938Z,8.50
2019-03-01T17:24:22.300Z,8.60
2019-03-01T17:26:51.438Z,8.60
2019-03-01T17:29:20.587Z,8.60
2019-03-01T17:31:49.556Z,8.60
2019-03-01T17:34:21.857Z,8.70
2019-03-01T17:37:08.717Z,8.60
2019-03-01T17:39:38.291Z,8.60
2019-03-01T17:42:20.677Z,8.60
2019-03-01T17:44:51.330Z,8.60
2019-03-01T17:47:20.998Z,8.60
2019-03-01T17:49:50.644Z,8.60
2019-03-01T17:52:36.102Z,8.60
2019-03-01T17:55:05.951Z,8.60
2019-03-01T17:57:36.295Z,8.60
2019-03-01T18:00:11.304Z,8.60
2019-03-01T18:02:42.325Z,8.60
2019-03-01T18:05:15.120Z,8.60
2019-03-01T18:07:44.794Z,8.60
2019-03-01T18:10:14.568Z,8.60
2019-03-01T18:12:44.008Z,8.50
2019-03-01T18:15:13.844Z,8.50
2019-03-01T18:17:43.448Z,8.50
2019-03-01T18:20:13.374Z,8.50
2019-03-01T18:22:45.375Z,8.50
2019-03-01T18:25:14.690Z,8.50
2019-03-01T18:27:43.771Z,8.50
2019-03-01T18:30:21.967Z,8.50
2019-03-01T18:32:51.552Z,8.50
2019-03-01T18:35:20.665Z,8.50
2019-03-01T18:37:51.377Z,8.50
2019-03-01T18:40:20.962Z,8.40
2019-03-01T18:42:50.570Z,8.40
2019-03-01T18:45:19.718Z,8.40
2019-03-01T18:47:48.723Z,8.30
2019-03-01T18:50:21.775Z,8.30
2019-03-01T18:52:53.189Z,8.30
2019-03-01T18:55:22.483Z,8.30
2019-03-01T18:57:51.522Z,8.30
2019-03-01T19:00:35.417Z,8.30
2019-03-01T19:03:05.351Z,8.30
2019-03-01T19:05:36.663Z,8.30
2019-03-01T19:08:06.873Z,8.30
2019-03-01T19:10:36.648Z,8.30
2019-03-01T19:13:06.996Z,8.30
2019-03-01T19:15:37.346Z,8.30
2019-03-01T19:18:07.309Z,8.30
2019-03-01T19:20:37.889Z,8.40
2019-03-01T19:23:08.870Z,8.30
2019-03-01T19:25:38.891Z,8.30
2019-03-01T19:28:08.963Z,8.30
2019-03-01T19:30:39.051Z,8.30
2019-03-01T19:33:08.556Z,8.30
2019-03-01T19:35:38.299Z,8.30
2019-03-01T19:38:08.241Z,8.30
2019-03-01T19:40:38.128Z,8.30
2019-03-01T19:43:10.262Z,8.30
2019-03-01T19:45:40.771Z,8.30
2019-03-01T19:48:10.828Z,8.30
2019-03-01T19:50:40.535Z,8.30
2019-03-01T19:53:11.103Z,8.20
2019-03-01T19:55:40.460Z,8.30
2019-03-01T19:58:11.902Z,8.20
2019-03-01T20:00:42.649Z,8.20
2019-03-01T20:03:18.993Z,8.20
2019-03-01T20:05:48.370Z,8.20
2019-03-01T20:08:17.926Z,8.20
2019-03-01T20:10:47.654Z,8.20
2019-03-01T20:13:18.047Z,8.20
2019-03-01T20:15:47.340Z,8.20
2019-03-01T20:18:16.558Z,8.20
2019-03-01T20:20:46.331Z,8.10
2019-03-01T20:23:15.360Z,8.10
2019-03-01T20:25:47.479Z,8.10
2019-03-01T20:28:16.365Z,8.00
2019-03-01T20:30:45.778Z,8.10
2019-03-01T20:33:15.451Z,8.10
2019-03-01T20:35:45.061Z,8.10
2019-03-01T20:38:14.498Z,8.10
2019-03-01T20:40:44.104Z,8.10
2019-03-01T20:43:13.681Z,8.10
2019-03-01T20:45:43.757Z,8.10
2019-03-01T20:48:13.404Z,8.10
2019-03-01T20:50:42.378Z,8.10
2019-03-01T20:53:13.409Z,8.10
2019-03-01T20:55:43.067Z,8.10
2019-03-01T20:58:13.056Z,8.10
2019-03-01T21:00:42.439Z,8.10
2019-03-01T21:03:11.558Z,8.00
2019-03-01T21:05:40.852Z,8.00
2019-03-01T21:08:10.387Z,8.00
2019-03-01T21:10:40.110Z,8.00
2019-03-01T21:13:12.550Z,8.00
2019-03-01T21:16:01.211Z,8.00
2019-03-01T21:18:34.144Z,8.00
2019-03-01T21:21:06.256Z,8.00
2019-03-01T21:23:36.516Z,7.90
2019-03-01T21:26:06.336Z,8.00
2019-03-01T21:28:36.578Z,8.00
2019-03-01T21:31:07.174Z,8.00
2019-03-01T21:33:36.886Z,8.00
2019-03-01T21:36:06.629Z,8.00
2019-03-01T21:38:37.054Z,8.00
2019-03-01T21:41:09.900Z,8.00
2019-03-01T21:43:38.619Z,8.10
2019-03-01T21:46:10.767Z,8.00
2019-03-01T21:48:43.359Z,8.00
2019-03-01T21:51:14.766Z,8.00
2019-03-01T21:53:45.456Z,8.00
2019-03-01T21:56:14.687Z,8.00
2019-03-01T21:58:46.769Z,8.00
2019-03-01T22:01:16.436Z,8.00
2019-03-01T22:03:45.766Z,8.00
2019-03-01T22:06:15.210Z,8.00
2019-03-01T22:08:44.749Z,8.00
2019-03-01T22:11:15.141Z,8.00
2019-03-01T22:13:44.747Z,8.00
2019-03-01T22:16:13.833Z,8.00
2019-03-01T22:18:42.793Z,8.00
2019-03-01T22:21:11.836Z,7.90
2019-03-01T22:23:41.369Z,7.90
2019-03-01T22:26:13.634Z,7.90
2019-03-01T22:28:42.412Z,7.90
2019-03-01T22:31:11.506Z,7.90
2019-03-01T22:33:41.438Z,8.00
2019-03-01T22:36:10.951Z,7.90
2019-03-01T22:38:41.431Z,7.90
2019-03-01T22:44:20.573Z,7.90
2019-03-01T22:46:53.205Z,7.90
2019-03-01T22:49:22.404Z,7.90
2019-03-01T22:51:52.991Z,7.90
2019-03-01T22:54:24.772Z,7.80
2019-03-01T22:56:53.808Z,7.80
2019-03-01T22:59:22.801Z,7.80
2019-03-01T23:01:57.365Z,7.90
2019-03-01T23:04:29.378Z,7.90
2019-03-01T23:07:01.894Z,7.90
2019-03-01T23:09:33.010Z,7.90
2019-03-01T23:12:04.732Z,7.90
2019-03-01T23:14:38.416Z,7.90
2019-03-01T23:17:09.813Z,7.90
2019-03-01T23:19:40.011Z,7.90
2019-03-01T23:22:10.935Z,7.90
2019-03-01T23:24:41.089Z,7.90
2019-03-01T23:27:10.910Z,7.80
2019-03-01T23:29:40.381Z,7.80
2019-03-01T23:32:15.450Z,7.80
2019-03-01T23:34:43.949Z,7.80
2019-03-01T23:37:13.735Z,7.80
2019-03-01T23:39:43.132Z,7.80
2019-03-01T23:42:12.418Z,7.70
2019-03-01T23:44:42.402Z,7.70
2019-03-01T23:47:12.087Z,7.60
2019-03-01T23:49:42.137Z,7.70
2019-03-01T23:52:12.498Z,7.70
2019-03-01T23:54:44.230Z,7.70
2019-03-01T23:57:13.511Z,7.60
2019-03-01T23:59:42.855Z,7.60
